Data for 07/17/2009

Time Sea-Level Adjusted Pressure Absolute Pressure Temperature Relative Humidity Dew Point   
(mb) (inHg) (mb) (inHg) (C) (F) (%) (C) (F)
00:05 1025 30.27 854 25.22 17.6 63.6 44 5.2 41.4
00:10 1025 30.27 854 25.22 17.6 63.6 46 5.9 42.5
00:15 1025 30.27 854 25.22 17.2 63 48 6.2 43.2
00:20 1025 30.27 854 25.22 17 62.6 45 5 41
00:25 1025 30.27 854 25.22 17.3 63.1 46 5.7 42.2
00:30 1025 30.27 854 25.22 17.5 63.4 42 4.5 40.1
00:35 1025 30.27 854 25.22 17.6 63.8 42 4.6 40.2
00:40 1025 30.27 854 25.22 17.8 64 40 4.3 39.7
00:45 1025 30.27 854 25.22 17.8 64.1 42 5 41
00:50 1025 30.27 854 25.22 17.7 63.9 41 4.4 39.9
00:55 1025 30.27 854 25.22 17.7 63.8 42 4.7 40.5
01:00 1025 30.27 854 25.22 17.6 63.7 40 4.1 39.4
01:05 1025 30.27 854 25.22 18 64.4 36 3 37.4
01:10 1025 30.27 854 25.22 18.4 65.1 39 4.2 39.5
01:15 1025 30.27 854 25.22 17.9 64.2 39 4.1 39.3
01:20 1025 30.27 854 25.22 17.9 64.2 39 4 39.3
01:25 1025 30.27 854 25.22 17.9 64.3 41 4.7 40.5
01:30 1025 30.27 854 25.22 17.3 63.1 44 5 41
01:35 1025 30.27 854 25.22 16.8 62.2 45 4.7 40.5
01:40 1025 30.27 854 25.22 16.9 62.4 42 4 39.1
01:45 1025 30.27 854 25.22 17.3 63.2 42 4.3 39.7
01:50 1025 30.27 854 25.22 17.3 63.2 41 4 39.1
01:55 1025 30.27 854 25.22 17.5 63.5 42 4.7 40.5
02:00 1025 30.27 854 25.22 17 62.6 42 4.1 39.5
02:05 1025 30.27 854 25.22 17.5 63.5 43 4.9 40.7
02:10 1025 30.27 854 25.22 17.4 63.4 43 4.8 40.6
02:15 1025 30.27 854 25.22 17.3 63.1 43 4.7 40.4
02:20 1025 30.27 854 25.22 17 62.6 46 5.5 41.9
02:25 1025 30.27 854 25.22 16.6 61.8 47 5.4 41.7
02:30 1025 30.27 854 25.22 16.5 61.6 48 5.5 42
02:35 1025 30.27 854 25.22 16.8 62.2 46 5.3 41.5
02:40 1025 30.27 854 25.22 16.6 61.9 46 5.2 41.4
02:45 1025 30.27 854 25.22 16.3 61.4 47 5 41
02:50 1025 30.27 854 25.22 16.2 61.1 48 5.3 41.5
02:55 1025 30.27 854 25.22 16.1 60.9 48 5.3 41.5
03:00 1025 30.27 854 25.22 16.2 61.2 48 5.2 41.3
03:05 1025 30.27 854 25.22 16.4 61.5 46 4.7 40.5
03:10 1025 30.27 854 25.22 16.4 61.6 46 4.8 40.7
03:15 1025 30.27 854 25.22 16.3 61.4 46 4.9 40.9
03:20 1025 30.27 854 25.22 16.4 61.4 46 4.9 40.9
03:25 1025 30.27 854 25.22 16.1 60.9 47 4.8 40.7
03:30 1025 30.27 854 25.22 16 60.8 46 4.3 39.8
03:35 1025 30.27 854 25.22 16.1 61 46 4.6 40.3
03:40 1025 30.27 854 25.22 16 60.8 44 4 39.2
03:45 1025 30.27 854 25.22 16.4 61.4 45 4.5 40.1
03:50 1025 30.27 854 25.22 16.2 61.2 45 4.3 39.8
03:55 1025 30.27 854 25.22 16.4 61.4 44 4.3 39.7
04:00 1025 30.27 854 25.22 16.2 61.2 45 4.5 40.1
04:05 1025 30.27 854 25.22 16.1 61 46 4.5 40.1
04:10 1025 30.27 854 25.22 16.1 61 45 4.3 39.8
04:15 1025 30.27 854 25.22 16.3 61.3 45 4.4 40
04:20 1025 30.27 854 25.22 16.3 61.3 45 4.4 39.8
04:25 1025 30.27 854 25.22 16.3 61.4 45 4.5 40.1
04:30 1025 30.27 854 25.22 16.1 61 47 4.8 40.7
04:35 1025 30.27 854 25.22 15.9 60.7 46 4.5 40.1
04:40 1025 30.27 854 25.22 16 60.7 46 4.6 40.2
04:45 1025 30.27 854 25.22 15.7 60.3 46 4.3 39.8
04:50 1025 30.27 854 25.22 15.6 60.1 47 4.4 39.8
04:55 1025 30.27 854 25.22 15.3 59.5 48 4.4 39.9
05:00 1025 30.27 855 25.25 15.1 59.1 47 4 39.3
05:05 1025 30.27 855 25.25 15.2 59.4 46 3.9 39
05:10 1025 30.27 855 25.25 15.1 59.2 49 4.6 40.3
05:15 1025 30.27 855 25.25 14.7 58.5 50 4.4 39.9
05:20 1025 30.27 855 25.25 14.9 58.8 48 4 39.2
05:25 1025 30.27 855 25.25 15.4 59.6 49 4.7 40.5
05:30 1025 30.27 855 25.25 15.1 59.2 50 4.9 40.8
05:35 1026 30.3 855 25.25 14.7 58.5 51 4.7 40.4
05:40 1026 30.3 855 25.25 14.7 58.5 50 4.4 40
05:45 1026 30.3 855 25.25 14.8 58.6 49 4.4 39.9
05:50 1026 30.3 855 25.25 14.8 58.6 50 4.5 40.2
05:55 1026 30.3 855 25.25 14.7 58.4 50 4.5 40.1
06:00 1026 30.3 855 25.25 14.7 58.4 50 4.4 39.9
06:05 1026 30.3 855 25.25 14.7 58.5 51 4.6 40.4
06:10 1026 30.3 855 25.25 14.6 58.3 49 4.2 39.6
06:15 1026 30.3 855 25.25 14.8 58.6 49 4.3 39.8
06:20 1026 30.3 855 25.25 14.7 58.5 49 4.3 39.7
06:25 1026 30.3 855 25.25 14.7 58.5 48 3.9 38.9
06:30 1026 30.3 855 25.25 14.6 58.2 49 4.1 39.4
06:35 1026 30.3 855 25.25 14.8 58.6 47 3.7 38.7
06:40 1026 30.3 855 25.25 14.9 58.8 47 3.8 38.9
06:45 1026 30.3 855 25.25 15.1 59.1 46 3.6 38.5
06:50 1026 30.3 855 25.25 15.3 59.6 46 3.9 39.1
06:55 1026 30.3 855 25.25 15.2 59.4 48 4.3 39.7
07:00 1026 30.3 855 25.25 15.2 59.4 48 4.3 39.7
07:05 1026 30.3 855 25.25 15.2 59.3 49 4.7 40.4
07:10 1026 30.3 855 25.25 15.1 59.2 49 4.5 40.1
07:15 1026 30.3 855 25.25 15.4 59.7 49 4.8 40.7
07:20 1026 30.3 855 25.25 15.5 59.8 49 5 41
07:25 1026 30.3 855 25.25 15.5 60 50 5.2 41.3
07:30 1026 30.3 855 25.25 15.7 60.3 49 5.2 41.4
07:35 1026 30.3 855 25.25 15.9 60.6 49 5.4 41.8
07:40 1026 30.3 855 25.25 16.1 60.9 51 6 42.7
07:45 1026 30.3 855 25.25 16.3 61.3 49 5.7 42.2
07:50 1026 30.3 855 25.25 16.7 62.1 49 6 42.9
07:55 1026 30.3 855 25.25 17.2 62.9 49 6.4 43.6
08:00 1026 30.3 855 25.25 17.4 63.4 47 6.2 43.2
08:05 1026 30.3 855 25.25 17.6 63.7 48 6.5 43.6
08:10 1026 30.3 855 25.25 17.8 64.1 49 6.9 44.5
08:15 1026 30.3 855 25.25 18.1 64.6 46 6.5 43.7
08:20 1026 30.3 855 25.25 18.2 64.8 46 6.5 43.6
08:25 1026 30.3 855 25.25 18.6 65.6 44 6.2 43.1
08:30 1026 30.3 855 25.25 18.7 65.7 45 6.8 44.2
08:35 1026 30.3 855 25.25 19.3 66.8 41 6 42.8
08:40 1026 30.3 856 25.28 19.6 67.3 41 6.2 43.1
08:45 1026 30.3 856 25.28 20.3 68.5 39 6.1 42.9
08:50 1026 30.3 856 25.28 20.9 69.5 39 6.5 43.8
08:55 1026 30.3 856 25.28 21.1 69.9 41 7.3 45.2
09:00 1026 30.3 856 25.28 21 69.9 41 7.3 45.2
09:05 1026 30.3 856 25.28 21.7 71.1 41 7.9 46.2
09:10 1026 30.3 856 25.28 22.6 72.7 38 7.6 45.7
09:15 1026 30.3 856 25.28 22.2 72 40 8.2 46.8
09:20 1026 30.3 856 25.28 22.4 72.3 37 7.4 45.3
09:25 1027 30.33 856 25.28 22.4 72.4 40 8.3 46.9
09:30 1027 30.33 856 25.28 22.2 72 37 7.2 44.9
09:35 1027 30.33 856 25.28 23.3 74 35 7.3 45.1
09:40 1027 30.33 856 25.28 23.5 74.3 37 8.2 46.8
09:45 1027 30.33 856 25.28 23.6 74.4 37 8.2 46.7
09:45 1027 30.33 856 25.28 23.4 74.2 37 8 46.5
09:50 1027 30.33 856 25.28 23.4 74.2 35 7.4 45.4
09:55 1027 30.33 856 25.28 23.3 73.9 37 7.8 46.1
10:00 1026 30.3 856 25.28 22.6 72.6 35 6.5 43.7
10:05 1026 30.3 856 25.28 22 71.6 37 6.8 44.3
10:10 1026 30.3 856 25.28 21.9 71.4 38 7 44.5
10:15 1026 30.3 856 25.28 22.2 72 39 7.6 45.8
10:20 1026 30.3 856 25.28 21.9 71.4 40 8 46.4
10:25 1026 30.3 855 25.25 21.9 71.4 40 7.9 46.1
10:30 1026 30.3 855 25.25 22.6 72.7 36 7.1 44.7
10:35 1026 30.3 855 25.25 22.6 72.7 37 7.3 45.1
10:40 1026 30.3 855 25.25 22.9 73.2 37 7.5 45.5
10:45 1026 30.3 855 25.25 23.2 73.8 31 5.5 41.8
10:50 1026 30.3 855 25.25 23.8 74.9 28 4.3 39.8
10:55 1026 30.3 855 25.25 24.4 75.9 33 7.2 44.9
11:00 1026 30.3 855 25.25 23.5 74.3 34 7 44.6
11:05 1026 30.3 855 25.25 23.7 74.6 33 6.8 44.2
11:10 1026 30.3 855 25.25 23.3 73.9 34 6.7 44
11:15 1026 30.3 855 25.25 23.6 74.5 31 5.6 42.2
11:20 1026 30.3 855 25.25 24.6 76.3 29 5.9 42.5
11:25 1026 30.3 855 25.25 24.3 75.7 32 6.8 44.2
11:30 1026 30.3 855 25.25 24.4 76 31 6.7 44
11:35 1026 30.3 855 25.25 25.7 78.3 30 7.1 44.7
11:40 1026 30.3 855 25.25 26.1 78.9 29 7 44.7
11:45 1026 30.3 855 25.25 26.1 79 28 6.5 43.6
11:50 1026 30.3 855 25.25 26.1 78.9 28 6.6 43.8
11:55 1026 30.3 856 25.28 25.8 78.5 28 6.2 43.2
12:00 1026 30.3 856 25.28 26.4 79.5 26 5.5 41.9
12:05 1026 30.3 856 25.28 26.9 80.4 26 6.2 43.2
12:10 1026 30.3 856 25.28 27 80.5 28 6.9 44.5
12:15 1026 30.3 856 25.28 26.8 80.2 28 7 44.5
12:20 1026 30.3 855 25.25 26.7 80 29 7.4 45.2
12:25 1026 30.3 855 25.25 26.7 80.1 29 7.3 45.1
12:30 1026 30.3 855 25.25 27.2 81 28 7.3 45.2
12:35 1026 30.3 855 25.25 27.6 81.6 26 6.9 44.4
12:40 1026 30.3 855 25.25 27.5 81.6 28 7.5 45.5
12:45 1026 30.3 855 25.25 26.5 79.8 28 6.8 44.3
12:50 1026 30.3 855 25.25 27.3 81.2 27 7.1 44.8
12:55 1026 30.3 855 25.25 27.5 81.4 26 6.4 43.4
13:00 1026 30.3 855 25.25 27.7 81.9 26 6.5 43.7
13:05 1026 30.3 855 25.25 27.8 82.1 25 6.2 43.1
13:10 1026 30.3 855 25.25 27.8 82 23 5.4 41.6
13:15 1026 30.3 855 25.25 27.8 82 25 6 42.8
13:20 1026 30.3 855 25.25 28.2 82.7 27 7.5 45.4
13:25 1026 30.3 855 25.25 27.7 81.8 24 5.9 42.6
13:30 1026 30.3 855 25.25 28.3 82.9 23 5.5 41.9
13:35 1026 30.3 855 25.25 28.7 83.6 23 6 42.7
13:40 1026 30.3 855 25.25 28.2 82.8 21 4.4 39.9
13:45 1026 30.3 855 25.25 27.8 82 21 3.7 38.7
13:50 1026 30.3 855 25.25 28.6 83.4 24 6.6 43.9
13:55 1026 30.3 855 25.25 28.3 83 28 8.4 47.2
14:00 1026 30.3 855 25.25 27.9 82.2 27 7.3 45.2
14:05 1026 30.3 855 25.25 27.9 82.2 26 7 44.6
14:10 1026 30.3 855 25.25 28.7 83.6 25 7 44.7
14:15 1026 30.3 855 25.25 28.9 84.1 22 5.6 42
14:20 1026 30.3 855 25.25 29.4 84.9 23 6.6 43.9
14:25 1026 30.3 855 25.25 29.2 84.6 21 5.2 41.4
14:30 1026 30.3 855 25.25 28.8 83.8 19 3.2 37.8
14:35 1026 30.3 855 25.25 29.9 85.8 16 1.9 35.5
14:40 1026 30.3 855 25.25 30.5 87 15 1.6 34.8
14:45 1026 30.3 855 25.25 29.5 85.1 18 3 37.5
14:50 1026 30.3 855 25.25 28.2 82.8 18 1.9 35.4
14:55 1026 30.3 855 25.25 29.5 85.2 15 0.4 32.8
15:00 1026 30.3 855 25.25 30.3 86.5 15 1.3 34.3
15:05 1026 30.3 855 25.25 30.5 87 15 1.3 34.3
15:10 1026 30.3 855 25.25 31.4 88.6 14 0.9 33.6
15:15 1026 30.3 855 25.25 31.7 89 14 1.7 35
15:20 1026 30.3 855 25.25 31 87.8 16 2.2 36
15:25 1026 30.3 855 25.25 30.9 87.6 14 0.6 33.1
15:30 1025 30.27 855 25.25 31 87.9 14 0.8 33.5
15:35 1025 30.27 855 25.25 30.5 86.9 15 0.9 33.6
15:40 1025 30.27 855 25.25 30.4 86.7 15 0.9 33.6
15:45 1025 30.27 855 25.25 30.4 86.7 15 1.2 34.2
15:50 1025 30.27 855 25.25 30.1 86.1 15 1.3 34.3
15:55 1025 30.27 854 25.22 29.7 85.4 16 1.1 34
16:00 1025 30.27 854 25.22 29.9 85.8 15 1.2 34.1
16:05 1025 30.27 855 25.25 29.6 85.3 17 2.5 36.5
16:10 1025 30.27 855 25.25 30.6 87.1 15 1.6 34.9
16:15 1025 30.27 855 25.25 31.2 88.1 15 2.1 35.7
16:20 1025 30.27 855 25.25 29.8 85.6 16 1.7 35.1
16:25 1025 30.27 854 25.22 29.6 85.4 16 1.1 34
16:30 1025 30.27 854 25.22 29.4 85 17 2.6 36.6
16:35 1025 30.27 854 25.22 29.6 85.4 18 3.5 38.3
16:40 1025 30.27 855 25.25 29.8 85.6 17 2.2 36
16:45 1025 30.27 854 25.22 29.7 85.5 18 3.4 38.2
16:50 1025 30.27 854 25.22 28.4 83.1 20 3.3 37.9
16:55 1025 30.27 854 25.22 27.9 82.3 20 3.5 38.2
17:00 1025 30.27 854 25.22 27.9 82.1 22 4.4 39.9
17:05 1025 30.27 854 25.22 27.6 81.7 23 4.6 40.3
17:10 1025 30.27 854 25.22 27.7 81.8 21 3.4 38.2
17:15 1025 30.27 854 25.22 27.7 81.8 21 3.7 38.7
17:20 1025 30.27 854 25.22 28.1 82.6 21 4 39.2
17:25 1025 30.27 854 25.22 27.9 82.3 20 3.2 37.7
17:30 1025 30.27 854 25.22 27.8 82.1 20 3.3 37.9
17:35 1025 30.27 854 25.22 27.6 81.7 21 3.3 37.9
17:40 1025 30.27 854 25.22 27.7 81.8 20 3.2 37.7
17:45 1025 30.27 854 25.22 27.7 81.9 21 3.5 38.3
17:50 1025 30.27 854 25.22 27.7 81.9 20 3.2 37.7
17:55 1025 30.27 854 25.22 27.5 81.6 21 3.8 38.9
18:00 1025 30.27 854 25.22 27.4 81.3 21 3.4 38.1
18:05 1025 30.27 854 25.22 27.5 81.5 21 3.3 37.9
18:10 1025 30.27 854 25.22 27.7 81.9 21 3.6 38.4
18:15 1025 30.27 854 25.22 28.1 82.5 20 3 37.4
18:20 1025 30.27 854 25.22 28 82.5 21 3.7 38.7
18:25 1025 30.27 854 25.22 28.3 82.9 20 3.4 38.1
18:30 1025 30.27 854 25.22 28 82.4 19 2.8 37
18:35 1025 30.27 854 25.22 28.1 82.6 19 2.9 37.2
18:40 1025 30.27 854 25.22 28.2 82.7 19 2.9 37.1
18:45 1025 30.27 854 25.22 28.1 82.5 20 3.4 38.1
18:50 1025 30.27 854 25.22 28.4 83.2 21 4.3 39.8
18:55 1025 30.27 854 25.22 28.6 83.4 20 3.5 38.4
19:00 1025 30.27 854 25.22 28.1 82.5 20 3.6 38.6
19:05 1025 30.27 854 25.22 27.7 81.9 20 2.9 37.3
19:10 1025 30.27 854 25.22 27.6 81.6 20 2.9 37.2
19:15 1025 30.27 854 25.22 27.6 81.6 20 2.6 36.7
19:20 1025 30.27 854 25.22 27.9 82.2 21 3.7 38.6
19:25 1025 30.27 854 25.22 27.9 82.1 20 3.4 38.1
19:30 1025 30.27 854 25.22 27.7 81.9 19 2.3 36.1
19:35 1025 30.27 854 25.22 27.5 81.5 20 3 37.4
19:40 1025 30.27 854 25.22 27.4 81.4 19 2.4 36.3
19:45 1025 30.27 854 25.22 27.3 81.1 21 3.3 37.9
19:50 1025 30.27 854 25.22 27.2 80.9 26 6.1 43
19:55 1025 30.27 854 25.22 26.8 80.2 28 7.2 45
20:00 1025 30.27 854 25.22 26.9 80.4 25 5.7 42.3
20:05 1025 30.27 854 25.22 26.9 80.5 27 6.4 43.5
20:10 1025 30.27 854 25.22 26.8 80.2 28 7.2 45
20:15 1025 30.27 854 25.22 26.6 79.8 32 9 48.2
20:20 1025 30.27 854 25.22 26.2 79.2 33 9.1 48.3
20:25 1025 30.27 854 25.22 26 78.7 36 9.8 49.6
20:30 1025 30.27 854 25.22 25.9 78.7 35 9.4 48.9
20:35 1025 30.27 854 25.22 25.9 78.6 37 10.5 50.9
20:40 1025 30.27 854 25.22 25.6 78.1 41 11.6 52.8
20:45 1025 30.27 854 25.22 25.2 77.3 45 12.4 54.4
20:50 1025 30.27 854 25.22 24.9 76.7 47 13 55.4
20:55 1025 30.27 854 25.22 24.2 75.5 48 12.6 54.7
21:00 1025 30.27 854 25.22 23.7 74.7 47 11.9 53.3
21:05 1025 30.27 854 25.22 23.2 73.8 46 11.2 52.1
21:10 1025 30.27 854 25.22 22.8 73 46 10.7 51.3
21:15 1025 30.27 854 25.22 22.5 72.6 39 8.3 46.9
21:20 1025 30.27 854 25.22 22.7 72.9 48 11.4 52.6
21:25 1025 30.27 854 25.22 22.1 71.7 46 10.2 50.4
21:30 1025 30.27 854 25.22 21.8 71.3 37 6.7 44
21:35 1025 30.27 854 25.22 22.2 71.9 38 7.4 45.4
21:40 1025 30.27 854 25.22 21.9 71.4 41 8.2 46.8
21:45 1025 30.27 855 25.25 21.3 70.3 42 7.9 46.3
21:50 1025 30.27 855 25.25 20.9 69.7 43 8 46.4
21:55 1025 30.27 855 25.25 20.4 68.8 43 7.8 46
22:00 1025 30.27 855 25.25 20 67.9 45 7.9 46.2
22:05 1025 30.27 855 25.25 20 68 43 7.3 45.2
22:10 1025 30.27 855 25.25 20.2 68.3 45 8.1 46.5
22:15 1025 30.27 855 25.25 19.9 67.7 45 7.8 46.1
22:20 1025 30.27 855 25.25 19.4 67 45 7.3 45.1
22:25 1025 30.27 855 25.25 19.3 66.7 45 7.2 44.9
22:30 1025 30.27 855 25.25 19.1 66.3 47 7.7 45.9
22:35 1025 30.27 855 25.25 18.8 65.9 47 7.4 45.4
22:40 1025 30.27 855 25.25 18.8 65.8 47 7.3 45.1
22:45 1025 30.27 855 25.25 18.7 65.6 47 7.3 45.1
22:50 1025 30.27 854 25.22 18.8 65.8 47 7.3 45.1
22:55 1025 30.27 854 25.22 18.7 65.6 48 7.5 45.6
23:00 1025 30.27 854 25.22 18.4 65.2 48 7.3 45.1
23:05 1025 30.27 855 25.25 18.5 65.4 47 7.3 45.1
23:10 1025 30.27 854 25.22 18.5 65.3 48 7.3 45.1
23:15 1025 30.27 854 25.22 18.4 65 47 7.1 44.8
23:20 1025 30.27 855 25.25 18.2 64.7 48 7.1 44.7
23:25 1025 30.27 855 25.25 17.9 64.3 48 6.9 44.3
23:30 1025 30.27 855 25.25 17.9 64.3 49 7.1 44.7
23:35 1025 30.27 854 25.22 18 64.5 49 7.2 45
23:40 1025 30.27 854 25.22 18 64.3 50 7.5 45.6
23:45 1025 30.27 854 25.22 17.7 63.8 51 7.6 45.7
23:50 1025 30.27 854 25.22 17.6 63.6 52 7.6 45.7
23:55 1025 30.27 854 25.22 17.6 63.7 52 7.7 45.9
24:00 1025 30.27 854 25.22 17.4 63.3 54 7.9 46.3